0640 UTC 28 July 2016 found at http://aviationweather.gov/adds/metars/
 
METAR text: KAFF 280558Z AUTO 11006KT 10SM CLR 20/13 A3029 RMK AO2 SLP152 T01990125 10305 20198 50013
Conditions at: KAFF (USAF ACADEMY/COS, CO, US) observed 0558 UTC 28 July 2016
Temperature: 19.9°C (68°F)
Dewpoint: 12.5°C (54°F) [RH = 62%]
Pressure (altimeter): 30.29 inches Hg (1025.8 mb[Sea-level pressure: 1015.2 mb]
Winds: from the ESE (110 degrees) at 7 MPH (6 knots; 3.1 m/s)
Visibility: 10 or more miles (16+ km)
Ceiling: at least 12,000 feet AGL
Clouds: sky clear below 12,000 feet AGL
Weather: automated observation with no human augmentation;
there may or may not be significant weather present at this time

METAR text: KAFF 280458Z AUTO 15008KT 10SM CLR 21/13 A3030 RMK AO2 SLP155 T02120126
Conditions at: KAFF (USAF ACADEMY/COS, CO, US) observed 0458 UTC 28 July 2016
Temperature: 21.2°C (70°F)
Dewpoint: 12.6°C (55°F) [RH = 58%]
Pressure (altimeter): 30.30 inches Hg (1026.2 mb[Sea-level pressure: 1015.5 mb]
Winds: from the SSE (150 degrees) at 9 MPH (8 knots; 4.2 m/s)
Visibility: 10 or more miles (16+ km)
Ceiling: at least 12,000 feet AGL
Clouds: sky clear below 12,000 feet AGL
Weather: automated observation with no human augmentation;
there may or may not be significant weather present at this time

METAR text: KAFF 280358Z AUTO 14014KT 10SM CLR 23/12 A3029 RMK AO2 SLP155 T02280118
Conditions at: KAFF (USAF ACADEMY/COS, CO, US) observed 0358 UTC 28 July 2016
Temperature: 22.8°C (73°F)
Dewpoint: 11.8°C (53°F) [RH = 50%]
Pressure (altimeter): 30.29 inches Hg (1025.8 mb[Sea-level pressure: 1015.5 mb]
Winds: from the SE (140 degrees) at 16 MPH (14 knots; 7.3 m/s)
Visibility: 10 or more miles (16+ km)
Ceiling: at least 12,000 feet AGL
Clouds: sky clear below 12,000 feet AGL
Weather: automated observation with no human augmentation;
there may or may not be significant weather present at this time

METAR text: KAFF 280258Z AUTO 07004KT 10SM BKN150 25/08 A3025 RMK AO2 SLP144 T02520080 53012
Conditions at: KAFF (USAF ACADEMY/COS, CO, US) observed 0258 UTC 28 July 2016
Temperature: 25.2°C (77°F)
Dewpoint: 8.0°C (46°F) [RH = 33%]
Pressure (altimeter): 30.25 inches Hg (1024.5 mb[Sea-level pressure: 1014.4 mb]
Winds: from the ENE (70 degrees) at 5 MPH (4 knots; 2.1 m/s)
Visibility: 10 or more miles (16+ km)
Ceiling: 15000 feet AGL
Clouds: broken clouds at 15000 feet AGL
Weather: automated observation with no human augmentation;
there may or may not be significant weather present at this time

METAR text: KAFF 280158Z AUTO 16004KT 10SM FEW140 26/07 A3022 RMK AO2 SLP137 T02570067
Conditions at: KAFF (USAF ACADEMY/COS, CO, US) observed 0158 UTC 28 July 2016
Temperature: 25.7°C (78°F)
Dewpoint: 6.7°C (44°F) [RH = 30%]
Pressure (altimeter): 30.22 inches Hg (1023.5 mb[Sea-level pressure: 1013.7 mb]
Winds: from the SSE (160 degrees) at 5 MPH (4 knots; 2.1 m/s)
Visibility: 10 or more miles (16+ km)
Ceiling: at least 12,000 feet AGL
Clouds: few clouds at 14000 feet AGL
Weather: automated observation with no human augmentation;
there may or may not be significant weather present at this time

METAR text: KAFF 280058Z AUTO 11005KT 10SM CLR 30/02 A3021 RMK AO2 SLP130 T03000019
Conditions at: KAFF (USAF ACADEMY/COS, CO, US) observed 0058 UTC 28 July 2016
Temperature: 30.0°C (86°F)
Dewpoint: 1.9°C (35°F) [RH = 17%]
Pressure (altimeter): 30.21 inches Hg (1023.1 mb[Sea-level pressure: 1013.0 mb]
Winds: from the ESE (110 degrees) at 6 MPH (5 knots; 2.6 m/s)
Visibility: 10 or more miles (16+ km)
Ceiling: at least 12,000 feet AGL
Clouds: sky clear below 12,000 feet AGL
Weather: automated observation with no human augmentation;
there may or may not be significant weather present at this time

METAR text: KAFF 272358Z COR 13008G15KT 10SM CLR 31/03 A3020 RMK AO2A SLP123 T03070026 10316 20289 57009 COR 0000
Conditions at: KAFF (USAF ACADEMY/COS, CO, US) observed 2358 UTC 27 July 2016
Temperature: 30.7°C (87°F)
Dewpoint: 2.6°C (37°F) [RH = 17%]
Pressure (altimeter): 30.20 inches Hg (1022.8 mb[Sea-level pressure: 1012.3 mb]
Winds: from the SE (130 degrees) at 9 MPH (8 knots; 4.2 m/sgusting to 17 MPH (15 knots; 7.8 m/s)
Visibility: 10 or more miles (16+ km)
Ceiling: at least 12,000 feet AGL
Clouds: sky clear below 12,000 feet AGL
Weather: no significant weather observed at this time

METAR text: KAFF 272258Z AUTO 14012KT 10SM FEW110 31/03 A3022 RMK AO2 SLP130 T03050032
Conditions at: KAFF (USAF ACADEMY/COS, CO, US) observed 2258 UTC 27 July 2016
Temperature: 30.5°C (87°F)
Dewpoint: 3.2°C (38°F) [RH = 18%]
Pressure (altimeter): 30.22 inches Hg (1023.5 mb[Sea-level pressure: 1013.0 mb]
Winds: from the SE (140 degrees) at 14 MPH (12 knots; 6.2 m/s)
Visibility: 10 or more miles (16+ km)
Ceiling: at least 12,000 feet AGL
Clouds: few clouds at 11000 feet AGL
Weather: automated observation with no human augmentation;
there may or may not be significant weather present at this time

METAR text: KAFF 272158Z AUTO 13010KT 10SM FEW120 31/02 A3022 RMK AO2 SLP130 T03110019
Conditions at: KAFF (USAF ACADEMY/COS, CO, US) observed 2158 UTC 27 July 2016
Temperature: 31.1°C (88°F)
Dewpoint: 1.9°C (35°F) [RH = 16%]
Pressure (altimeter): 30.22 inches Hg (1023.5 mb[Sea-level pressure: 1013.0 mb]
Winds: from the SE (130 degrees) at 12 MPH (10 knots; 5.2 m/s)
Visibility: 10 or more miles (16+ km)
Ceiling: at least 12,000 feet AGL
Clouds: few clouds at 12000 feet AGL
Weather: automated observation with no human augmentation;
there may or may not be significant weather present at this time

METAR text: KAFF 272058Z 08009KT 10SM FEW100 FEW150 31/02 A3023 RMK AO2A SLP131 T03100018 57011
Conditions at: KAFF (USAF ACADEMY/COS, CO, US) observed 2058 UTC 27 July 2016
Temperature: 31.0°C (88°F)
Dewpoint: 1.8°C (35°F) [RH = 15%]
Pressure (altimeter): 30.23 inches Hg (1023.8 mb[Sea-level pressure: 1013.1 mb]
Winds: from the E (80 degrees) at 10 MPH (9 knots; 4.7 m/s)
Visibility: 10 or more miles (16+ km)
Ceiling: at least 12,000 feet AGL
Clouds: few clouds at 10000 feet AGL
few clouds at 15000 feet AGL
Weather: no significant weather observed at this time

METAR text: KAFF 271958Z 06007KT 010V090 10SM FEW100 30/01 A3025 RMK AO2A SLP141 T03030005
Conditions at: KAFF (USAF ACADEMY/COS, CO, US) observed 1958 UTC 27 July 2016
Temperature: 30.3°C (87°F)
Dewpoint: 0.5°C (33°F) [RH = 15%]
Pressure (altimeter): 30.25 inches Hg (1024.5 mb[Sea-level pressure: 1014.1 mb]
Winds: from the ENE (60 degrees) at 8 MPH (7 knots; 3.6 m/s)
Visibility: 10 or more miles (16+ km)
Ceiling: at least 12,000 feet AGL
Clouds: few clouds at 10000 feet AGL
Weather: no significant weather observed at this time

METAR text: KAFF 271858Z 08005G15KT 10SM FEW100 30/01 A3026 RMK AO2A SLP144 T03010012
Conditions at: KAFF (USAF ACADEMY/COS, CO, US) observed 1858 UTC 27 July 2016
Temperature: 30.1°C (86°F)
Dewpoint: 1.2°C (34°F) [RH = 16%]
Pressure (altimeter): 30.26 inches Hg (1024.8 mb[Sea-level pressure: 1014.4 mb]
Winds: from the E (80 degrees) at 6 MPH (5 knots; 2.6 m/sgusting to 17 MPH (15 knots; 7.8 m/s)
Visibility: 10 or more miles (16+ km)
Ceiling: at least 12,000 feet AGL
Clouds: few clouds at 10000 feet AGL
Weather: no significant weather observed at this time

METAR text: KAFF 271758Z 02007G17KT 10SM FEW100 30/04 A3027 RMK AO2A SLP148 T02980040 10298 20154 56003
Conditions at: KAFF (USAF ACADEMY/COS, CO, US) observed 1758 UTC 27 July 2016
Temperature: 29.8°C (86°F)
Dewpoint: 4.0°C (39°F) [RH = 19%]
Pressure (altimeter): 30.27 inches Hg (1025.1 mb[Sea-level pressure: 1014.8 mb]
Winds: from the NNE (20 degrees) at 8 MPH (7 knots; 3.6 m/sgusting to 20 MPH (17 knots; 8.8 m/s)
Visibility: 10 or more miles (16+ km)
Ceiling: at least 12,000 feet AGL
Clouds: few clouds at 10000 feet AGL
Weather: no significant weather observed at this time

METAR text: KAFF 271658Z 36007KT 10SM FEW070 FEW200 29/01 A3027 RMK AO2A SLP151 T02900009
Conditions at: KAFF (USAF ACADEMY/COS, CO, US) observed 1658 UTC 27 July 2016
Temperature: 29.0°C (84°F)
Dewpoint: 0.9°C (34°F) [RH = 16%]
Pressure (altimeter): 30.27 inches Hg (1025.1 mb[Sea-level pressure: 1015.1 mb]
Winds: from the N (360 degrees) at 8 MPH (7 knots; 3.6 m/s)
Visibility: 10 or more miles (16+ km)
Ceiling: at least 12,000 feet AGL
Clouds: few clouds at 7000 feet AGL
few clouds at 20000 feet AGL
Weather: no significant weather observed at this time

METAR text: KAFF 271558Z VRB04KT 10SM CLR 25/12 A3028 RMK AO2A SLP158 T02480124
Conditions at: KAFF (USAF ACADEMY/COS, CO, US) observed 1558 UTC 27 July 2016
Temperature: 24.8°C (77°F)
Dewpoint: 12.4°C (54°F) [RH = 46%]
Pressure (altimeter): 30.28 inches Hg (1025.5 mb[Sea-level pressure: 1015.8 mb]
Winds: variable direction winds at 5 MPH (4 knots; 2.1 m/s)
Visibility: 10 or more miles (16+ km)
Ceiling: at least 12,000 feet AGL
Clouds: sky clear below 12,000 feet AGL
Weather: no significant weather observed at this time

METAR text: KAFF 271458Z VRB02KT 10SM CLR 21/13 A3028 RMK AO2A SLP161 T02060133 58001
Conditions at: KAFF (USAF ACADEMY/COS, CO, US) observed 1458 UTC 27 July 2016
Temperature: 20.6°C (69°F)
Dewpoint: 13.3°C (56°F) [RH = 63%]
Pressure (altimeter): 30.28 inches Hg (1025.5 mb[Sea-level pressure: 1016.1 mb]
Winds: variable direction winds at 2 MPH (2 knots; 1.0 m/s)
Visibility: 10 or more miles (16+ km)
Ceiling: at least 12,000 feet AGL
Clouds: sky clear below 12,000 feet AGL
Weather: no significant weather observed at this time

METAR text: KAFF 271358Z 32005KT 10SM FEW010 FEW050 17/15 A3028 RMK AO2A SLP161 T01740145
Conditions at: KAFF (USAF ACADEMY/COS, CO, US) observed 1358 UTC 27 July 2016
Temperature: 17.4°C (63°F)
Dewpoint: 14.5°C (58°F) [RH = 83%]
Pressure (altimeter): 30.28 inches Hg (1025.5 mb[Sea-level pressure: 1016.1 mb]
Winds: from the NW (320 degrees) at 6 MPH (5 knots; 2.6 m/s)
Visibility: 10 or more miles (16+ km)
Ceiling: at least 12,000 feet AGL
Clouds: few clouds at 1000 feet AGL
few clouds at 5000 feet AGL
Weather: no significant weather observed at this time

METAR text: KAFF 271311Z COR 35002KT 10SM SCT007 16/14 A3028 RMK A02A COR 1318
Conditions at: KAFF (USAF ACADEMY/COS, CO, US) observed 1311 UTC 27 July 2016
Temperature: 16.0°C (61°F)
Dewpoint: 14.0°C (57°F) [RH = 88%]
Pressure (altimeter): 30.28 inches Hg (1025.5 mb)
Winds: from the N (350 degrees) at 2 MPH (2 knots; 1.0 m/s)
Visibility: 10 or more miles (16+ km)
Ceiling: at least 12,000 feet AGL
Clouds: scattered clouds at 700 feet AGL
Weather: no significant weather observed at this time

METAR text: KAFF 271258Z AUTO 30001KT 10SM OVC007 16/13 A3029 RMK AO2 SLP164 T01550133
Conditions at: KAFF (USAF ACADEMY/COS, CO, US) observed 1258 UTC 27 July 2016
Temperature: 15.5°C (60°F)
Dewpoint: 13.3°C (56°F) [RH = 87%]
Pressure (altimeter): 30.29 inches Hg (1025.8 mb[Sea-level pressure: 1016.4 mb]
Winds: from the WNW (300 degrees) at 1 MPH (1 knots; 0.5 m/s)
Visibility: 10 or more miles (16+ km)
Ceiling: 700 feet AGL
Clouds: overcast cloud deck at 700 feet AGL
Weather: automated observation with no human augmentation;
there may or may not be significant weather present at this time

METAR text: KAFF 271158Z AUTO 26003KT 10SM OVC009 16/14 A3029 RMK AO2 SLP161 T01600142 10200 20153 53002
Conditions at: KAFF (USAF ACADEMY/COS, CO, US) observed 1158 UTC 27 July 2016
Temperature: 16.0°C (61°F)
Dewpoint: 14.2°C (58°F) [RH = 89%]
Pressure (altimeter): 30.29 inches Hg (1025.8 mb[Sea-level pressure: 1016.1 mb]
Winds: from the W (260 degrees) at 3 MPH (3 knots; 1.6 m/s)
Visibility: 10 or more miles (16+ km)
Ceiling: 900 feet AGL
Clouds: overcast cloud deck at 900 feet AGL
Weather: automated observation with no human augmentation;
there may or may not be significant weather present at this time

METAR text: KAFF 271153Z AUTO 25002KT 10SM OVC009 16/14 A3028 RMK AO2
Conditions at: KAFF (USAF ACADEMY/COS, CO, US) observed 1153 UTC 27 July 2016
Temperature: 16.0°C (61°F)
Dewpoint: 14.0°C (57°F) [RH = 88%]
Pressure (altimeter): 30.28 inches Hg (1025.5 mb)
Winds: from the WSW (250 degrees) at 2 MPH (2 knots; 1.0 m/s)
Visibility: 10 or more miles (16+ km)
Ceiling: 900 feet AGL
Clouds: overcast cloud deck at 900 feet AGL
Weather: automated observation with no human augmentation;
there may or may not be significant weather present at this time

METAR text: KAFF 271143Z AUTO 20002KT 10SM OVC010 16/14 A3029 RMK AO2
Conditions at: KAFF (USAF ACADEMY/COS, CO, US) observed 1143 UTC 27 July 2016
Temperature: 16.0°C (61°F)
Dewpoint: 14.0°C (57°F) [RH = 88%]
Pressure (altimeter): 30.29 inches Hg (1025.8 mb)
Winds: from the SSW (200 degrees) at 2 MPH (2 knots; 1.0 m/s)
Visibility: 10 or more miles (16+ km)
Ceiling: 1000 feet AGL
Clouds: overcast cloud deck at 1000 feet AGL
Weather: automated observation with no human augmentation;
there may or may not be significant weather present at this time

METAR text: KAFF 271108Z AUTO 00000KT 10SM OVC009 16/14 A3028 RMK AO2
Conditions at: KAFF (USAF ACADEMY/COS, CO, US) observed 1108 UTC 27 July 2016
Temperature: 16.0°C (61°F)
Dewpoint: 14.0°C (57°F) [RH = 88%]
Pressure (altimeter): 30.28 inches Hg (1025.5 mb)
Winds: calm
Visibility: 10 or more miles (16+ km)
Ceiling: 900 feet AGL
Clouds: overcast cloud deck at 900 feet AGL
Weather: automated observation with no human augmentation;
there may or may not be significant weather present at this time

METAR text: KAFF 271058Z AUTO 00000KT 10SM OVC010 16/14 A3028 RMK AO2 OVC V BKN SLP158 T01600142
Conditions at: KAFF (USAF ACADEMY/COS, CO, US) observed 1058 UTC 27 July 2016
Temperature: 16.0°C (61°F)
Dewpoint: 14.2°C (58°F) [RH = 89%]
Pressure (altimeter): 30.28 inches Hg (1025.5 mb[Sea-level pressure: 1015.8 mb]
Winds: calm
Visibility: 10 or more miles (16+ km)
Ceiling: 1000 feet AGL
Clouds: overcast cloud deck at 1000 feet AGL
Weather: automated observation with no human augmentation;
there may or may not be significant weather present at this time

METAR text: KAFF 271043Z AUTO 00000KT 10SM BKN010 OVC016 16/14 A3028 RMK AO2 CIG 010V016 BKN V FEW
Conditions at: KAFF (USAF ACADEMY/COS, CO, US) observed 1043 UTC 27 July 2016
Temperature: 16.0°C (61°F)
Dewpoint: 14.0°C (57°F) [RH = 88%]
Pressure (altimeter): 30.28 inches Hg (1025.5 mb)
Winds: calm
Visibility: 10 or more miles (16+ km)
Ceiling: 1000 feet AGL
Clouds: broken clouds at 1000 feet AGL
overcast cloud deck at 1600 feet AGL
Weather: automated observation with no human augmentation;
there may or may not be significant weather present at this time

METAR text: KAFF 270958Z AUTO 15005KT 10SM BKN016 17/14 A3028 RMK AO2 BKN V OVC SLP158 T01670142
Conditions at: KAFF (USAF ACADEMY/COS, CO, US) observed 0958 UTC 27 July 2016
Temperature: 16.7°C (62°F)
Dewpoint: 14.2°C (58°F) [RH = 85%]
Pressure (altimeter): 30.28 inches Hg (1025.5 mb[Sea-level pressure: 1015.8 mb]
Winds: from the SSE (150 degrees) at 6 MPH (5 knots; 2.6 m/s)
Visibility: 10 or more miles (16+ km)
Ceiling: 1600 feet AGL
Clouds: broken clouds at 1600 feet AGL
Weather: automated observation with no human augmentation;
there may or may not be significant weather present at this time

METAR text: KAFF 270858Z AUTO 15005KT 10SM OVC018 18/15 A3028 RMK AO2 SLP155 T01750145 50005
Conditions at: KAFF (USAF ACADEMY/COS, CO, US) observed 0858 UTC 27 July 2016
Temperature: 17.5°C (64°F)
Dewpoint: 14.5°C (58°F) [RH = 83%]
Pressure (altimeter): 30.28 inches Hg (1025.5 mb[Sea-level pressure: 1015.5 mb]
Winds: from the SSE (150 degrees) at 6 MPH (5 knots; 2.6 m/s)
Visibility: 10 or more miles (16+ km)
Ceiling: 1800 feet AGL
Clouds: overcast cloud deck at 1800 feet AGL
Weather: automated observation with no human augmentation;
there may or may not be significant weather present at this time

METAR text: KAFF 270838Z AUTO 14008KT 10SM BKN019 17/14 A3029 RMK AO2 BKN V SCT
Conditions at: KAFF (USAF ACADEMY/COS, CO, US) observed 0838 UTC 27 July 2016
Temperature: 17.0°C (63°F)
Dewpoint: 14.0°C (57°F) [RH = 82%]
Pressure (altimeter): 30.29 inches Hg (1025.8 mb)
Winds: from the SE (140 degrees) at 9 MPH (8 knots; 4.2 m/s)
Visibility: 10 or more miles (16+ km)
Ceiling: 1900 feet AGL
Clouds: broken clouds at 1900 feet AGL
Weather: automated observation with no human augmentation;
there may or may not be significant weather present at this time

METAR text: KAFF 270813Z AUTO 16005KT 10SM SCT018 17/12 A3028 RMK AO2
Conditions at: KAFF (USAF ACADEMY/COS, CO, US) observed 0813 UTC 27 July 2016
Temperature: 17.0°C (63°F)
Dewpoint: 12.0°C (54°F) [RH = 72%]
Pressure (altimeter): 30.28 inches Hg (1025.5 mb)
Winds: from the SSE (160 degrees) at 6 MPH (5 knots; 2.6 m/s)
Visibility: 10 or more miles (16+ km)
Ceiling: at least 12,000 feet AGL
Clouds: scattered clouds at 1800 feet AGL
Weather: automated observation with no human augmentation;
there may or may not be significant weather present at this time

METAR text: KAFF 270758Z AUTO 17004KT 10SM BKN019 18/12 A3029 RMK AO2 BKN V SCT SLP155
Conditions at: KAFF (USAF ACADEMY/COS, CO, US) observed 0758 UTC 27 July 2016
Temperature: 18.0°C (64°F)
Dewpoint: 12.0°C (54°F) [RH = 68%]
Pressure (altimeter): 30.29 inches Hg (1025.8 mb[Sea-level pressure: 1015.5 mb]
Winds: from the S (170 degrees) at 5 MPH (4 knots; 2.1 m/s)
Visibility: 10 or more miles (16+ km)
Ceiling: 1900 feet AGL
Clouds: broken clouds at 1900 feet AGL
Weather: automated observation with no human augmentation;
there may or may not be significant weather present at this time

METAR text: KAFF 270713Z AUTO 15001KT 10SM OVC019 18/10 A3029 RMK AO2 OVC V BKN
Conditions at: KAFF (USAF ACADEMY/COS, CO, US) observed 0713 UTC 27 July 2016
Temperature: 18.0°C (64°F)
Dewpoint: 10.0°C (50°F) [RH = 59%]
Pressure (altimeter): 30.29 inches Hg (1025.8 mb)
Winds: from the SSE (150 degrees) at 1 MPH (1 knots; 0.5 m/s)
Visibility: 10 or more miles (16+ km)
Ceiling: 1900 feet AGL
Clouds: overcast cloud deck at 1900 feet AGL
Weather: automated observation with no human augmentation;
there may or may not be significant weather present at this time

METAR text: KAFF 270658Z AUTO 19005KT 10SM BKN021 17/09 A3030 RMK AO2 BKN V SCT SLP162 T01740094 402940123
Conditions at: KAFF (USAF ACADEMY/COS, CO, US) observed 0658 UTC 27 July 2016
Temperature: 17.4°C (63°F)
Dewpoint: 9.4°C (49°F) [RH = 59%]
Pressure (altimeter): 30.30 inches Hg (1026.2 mb[Sea-level pressure: 1016.2 mb]
Winds: from the S (190 degrees) at 6 MPH (5 knots; 2.6 m/s)
Visibility: 10 or more miles (16+ km)
Ceiling: 2100 feet AGL
Clouds: broken clouds at 2100 feet AGL
Weather: automated observation with no human augmentation;
there may or may not be significant weather present at this time

METAR text: KAFF 270558Z AUTO 07005KT 10SM FEW150 18/05 A3026 RMK AO2 SLP148 T01790050 10277 20161 50001
Conditions at: KAFF (USAF ACADEMY/COS, CO, US) observed 0558 UTC 27 July 2016
Temperature: 17.9°C (64°F)
Dewpoint: 5.0°C (41°F) [RH = 43%]
Pressure (altimeter): 30.26 inches Hg (1024.8 mb[Sea-level pressure: 1014.8 mb]
Winds: from the ENE (70 degrees) at 6 MPH (5 knots; 2.6 m/s)
Visibility: 10 or more miles (16+ km)
Ceiling: at least 12,000 feet AGL
Clouds: few clouds at 15000 feet AGL
Weather: automated observation with no human augmentation;
there may or may not be significant weather present at this time

METAR text: KAFF 270458Z AUTO 36006KT 10SM CLR 17/06 A3026 RMK AO2 SLP154 T01670063
Conditions at: KAFF (USAF ACADEMY/COS, CO, US) observed 0458 UTC 27 July 2016
Temperature: 16.7°C (62°F)
Dewpoint: 6.3°C (43°F) [RH = 50%]
Pressure (altimeter): 30.26 inches Hg (1024.8 mb[Sea-level pressure: 1015.4 mb]
Winds: from the N (360 degrees) at 7 MPH (6 knots; 3.1 m/s)
Visibility: 10 or more miles (16+ km)
Ceiling: at least 12,000 feet AGL
Clouds: sky clear below 12,000 feet AGL
Weather: automated observation with no human augmentation;
there may or may not be significant weather present at this time

METAR text: KAFF 270358Z AUTO 35006KT 10SM BKN220 18/08 A3027 RMK AO2 SLP157 T01840077
Conditions at: KAFF (USAF ACADEMY/COS, CO, US) observed 0358 UTC 27 July 2016
Temperature: 18.4°C (65°F)
Dewpoint: 7.7°C (46°F) [RH = 50%]
Pressure (altimeter): 30.27 inches Hg (1025.1 mb[Sea-level pressure: 1015.7 mb]
Winds: from the N (350 degrees) at 7 MPH (6 knots; 3.1 m/s)
Visibility: 10 or more miles (16+ km)
Ceiling: 22000 feet AGL
Clouds: broken clouds at 22000 feet AGL
Weather: automated observation with no human augmentation;
there may or may not be significant weather present at this time

METAR text: KAFF 270258Z AUTO 02004KT 10SM SCT160 BKN220 20/07 A3025 RMK AO2 SLP150 T02040072 51007
Conditions at: KAFF (USAF ACADEMY/COS, CO, US) observed 0258 UTC 27 July 2016
Temperature: 20.4°C (69°F)
Dewpoint: 7.2°C (45°F) [RH = 42%]
Pressure (altimeter): 30.25 inches Hg (1024.5 mb[Sea-level pressure: 1015.0 mb]
Winds: from the NNE (20 degrees) at 5 MPH (4 knots; 2.1 m/s)
Visibility: 10 or more miles (16+ km)
Ceiling: 22000 feet AGL
Clouds: scattered clouds at 16000 feet AGL
broken clouds at 22000 feet AGL
Weather: automated observation with no human augmentation;
there may or may not be significant weather present at this time

METAR text: KAFF 270158Z AUTO 00000KT 10SM OVC150 24/06 A3025 RMK AO2 SLP147 T02440056
Conditions at: KAFF (USAF ACADEMY/COS, CO, US) observed 0158 UTC 27 July 2016
Temperature: 24.4°C (76°F)
Dewpoint: 5.6°C (42°F) [RH = 30%]
Pressure (altimeter): 30.25 inches Hg (1024.5 mb[Sea-level pressure: 1014.7 mb]
Winds: calm
Visibility: 10 or more miles (16+ km)
Ceiling: 15000 feet AGL
Clouds: overcast cloud deck at 15000 feet AGL
Weather: automated observation with no human augmentation;
there may or may not be significant weather present at this time

METAR text: KAFF 270058Z 18007KT 10SM SCT090 SCT120 SCT150 BKN220 26/06 A3024 RMK AO2A SLP137 T02580056
Conditions at: KAFF (USAF ACADEMY/COS, CO, US) observed 0058 UTC 27 July 2016
Temperature: 25.8°C (78°F)
Dewpoint: 5.6°C (42°F) [RH = 27%]
Pressure (altimeter): 30.24 inches Hg (1024.1 mb[Sea-level pressure: 1013.7 mb]
Winds: from the S (180 degrees) at 8 MPH (7 knots; 3.6 m/s)
Visibility: 10 or more miles (16+ km)
Ceiling: 22000 feet AGL
Clouds: scattered clouds at 9000 feet AGL
scattered clouds at 12000 feet AGL
scattered clouds at 15000 feet AGL
broken clouds at 22000 feet AGL
Weather: no significant weather observed at this time

METAR text: KAFF 262358Z 16006KT 10SM SCT090 BKN120 BKN150 28/04 A3023 RMK AO2A SLP128 T02770039 10294 20262 56009
Conditions at: KAFF (USAF ACADEMY/COS, CO, US) observed 2358 UTC 26 July 2016
Temperature: 27.7°C (82°F)
Dewpoint: 3.9°C (39°F) [RH = 22%]
Pressure (altimeter): 30.23 inches Hg (1023.8 mb[Sea-level pressure: 1012.8 mb]
Winds: from the SSE (160 degrees) at 7 MPH (6 knots; 3.1 m/s)
Visibility: 10 or more miles (16+ km)
Ceiling: 12000 feet AGL
Clouds: scattered clouds at 9000 feet AGL
broken clouds at 12000 feet AGL
broken clouds at 15000 feet AGL
Weather: no significant weather observed at this time

METAR text: KAFF 262342Z AUTO 21006KT 10SM -RA BKN120 BKN140 28/03 A3024 RMK AO2 RAB42
Conditions at: KAFF (USAF ACADEMY/COS, CO, US) observed 2342 UTC 26 July 2016
Temperature: 28.0°C (82°F)
Dewpoint: 3.0°C (37°F) [RH = 20%]
Pressure (altimeter): 30.24 inches Hg (1024.1 mb)
Winds: from the SSW (210 degrees) at 7 MPH (6 knots; 3.1 m/s)
Visibility: 10 or more miles (16+ km)
Ceiling: 12000 feet AGL
Clouds: broken clouds at 12000 feet AGL
broken clouds at 14000 feet AGL
Weather: -RA  (light rain)

METAR text: KAFF 262258Z AUTO 31009KT 10SM SCT110 28/04 A3023 RMK AO2 SLP131 T02760038
Conditions at: KAFF (USAF ACADEMY/COS, CO, US) observed 2258 UTC 26 July 2016
Temperature: 27.6°C (82°F)
Dewpoint: 3.8°C (39°F) [RH = 22%]
Pressure (altimeter): 30.23 inches Hg (1023.8 mb[Sea-level pressure: 1013.1 mb]
Winds: from the NW (310 degrees) at 10 MPH (9 knots; 4.7 m/s)
Visibility: 10 or more miles (16+ km)
Ceiling: at least 12,000 feet AGL
Clouds: scattered clouds at 11000 feet AGL
Weather: automated observation with no human augmentation;
there may or may not be significant weather present at this time

METAR text: KAFF 262158Z AUTO 28011G19KT 10SM SCT130 SCT160 27/05 A3025 RMK AO2 PK WND 23030/17 SLP153 T02710048
Conditions at: KAFF (USAF ACADEMY/COS, CO, US) observed 2158 UTC 26 July 2016
Temperature: 27.1°C (81°F)
Dewpoint: 4.8°C (41°F) [RH = 24%]
Pressure (altimeter): 30.25 inches Hg (1024.5 mb[Sea-level pressure: 1015.3 mb]
Winds: from the W (280 degrees) at 13 MPH (11 knots; 5.7 m/sgusting to 22 MPH (19 knots; 9.9 m/s)
Visibility: 10 or more miles (16+ km)
Ceiling: at least 12,000 feet AGL
Clouds: scattered clouds at 13000 feet AGL
scattered clouds at 16000 feet AGL
Weather: automated observation with no human augmentation;
there may or may not be significant weather present at this time

METAR text: KAFF 262058Z 30006KT 10SM SCT090 SCT120 SCT150 BKN210 28/03 A3026 RMK AO2A SLP151 T02800033 53002
Conditions at: KAFF (USAF ACADEMY/COS, CO, US) observed 2058 UTC 26 July 2016
Temperature: 28.0°C (82°F)
Dewpoint: 3.3°C (38°F) [RH = 20%]
Pressure (altimeter): 30.26 inches Hg (1024.8 mb[Sea-level pressure: 1015.1 mb]
Winds: from the WNW (300 degrees) at 7 MPH (6 knots; 3.1 m/s)
Visibility: 10 or more miles (16+ km)
Ceiling: 21000 feet AGL
Clouds: scattered clouds at 9000 feet AGL
scattered clouds at 12000 feet AGL
scattered clouds at 15000 feet AGL
broken clouds at 21000 feet AGL
Weather: no significant weather observed at this time

METAR text: KAFF 261958Z 33013G21KT 10SM SCT090 SCT110 BKN140 BKN170 BKN210 29/04 A3026 RMK AO2A SLP141 T02880040
Conditions at: KAFF (USAF ACADEMY/COS, CO, US) observed 1958 UTC 26 July 2016
Temperature: 28.8°C (84°F)
Dewpoint: 4.0°C (39°F) [RH = 21%]
Pressure (altimeter): 30.26 inches Hg (1024.8 mb[Sea-level pressure: 1014.1 mb]
Winds: from the NNW (330 degrees) at 15 MPH (13 knots; 6.8 m/sgusting to 24 MPH (21 knots; 10.9 m/s)
Visibility: 10 or more miles (16+ km)
Ceiling: 14000 feet AGL
Clouds: scattered clouds at 9000 feet AGL
scattered clouds at 11000 feet AGL
broken clouds at 14000 feet AGL
broken clouds at 17000 feet AGL
Weather: no significant weather observed at this time

METAR text: KAFF 261951Z 33018G21KT 10SM SCT090 BKN110 BKN140 BKN180 29/03 A3026 RMK AO2A WSHFT 44 LTG DSNT S
Conditions at: KAFF (USAF ACADEMY/COS, CO, US) observed 1951 UTC 26 July 2016
Temperature: 29.0°C (84°F)
Dewpoint: 3.0°C (37°F) [RH = 19%]
Pressure (altimeter): 30.26 inches Hg (1024.8 mb)
Winds: from the NNW (330 degrees) at 21 MPH (18 knots; 9.4 m/sgusting to 24 MPH (21 knots; 10.9 m/s)
Visibility: 10 or more miles (16+ km)
Ceiling: 11000 feet AGL
Clouds: scattered clouds at 9000 feet AGL
broken clouds at 11000 feet AGL
broken clouds at 14000 feet AGL
broken clouds at 18000 feet AGL
Weather: no significant weather observed at this time

METAR text: KAFF 261858Z 19009KT 10SM VCTS SCT090 BKN130 BKN160 28/08 A3025 RMK AO2A SLP141 T02830077
Conditions at: KAFF (USAF ACADEMY/COS, CO, US) observed 1858 UTC 26 July 2016
Temperature: 28.3°C (83°F)
Dewpoint: 7.7°C (46°F) [RH = 27%]
Pressure (altimeter): 30.25 inches Hg (1024.5 mb[Sea-level pressure: 1014.1 mb]
Winds: from the S (190 degrees) at 10 MPH (9 knots; 4.7 m/s)
Visibility: 10 or more miles (16+ km)
Ceiling: 13000 feet AGL
Clouds: scattered clouds at 9000 feet AGL
broken clouds at 13000 feet AGL
broken clouds at 16000 feet AGL
Weather: VCTS  (thunderstorm in vicinity)